Hauptseite
METAR-TAF:

METAR-TAF

Flughäfen :

RAF Marham

Marham, England

Breite: 52-39N, Länge: 000-34E, Höhe: 23 m

Beobachtung

Neuester Wetterbericht von vor 37 Minuten, um 18:50 UTC
Wind 5 kt aus Südwest
Temperatur 17°C
Luftfeuchtigkeit 52%
Luftdruck 1017 hPa
Sichtweite 10 km oder mehr
keine Wolken unter 1500 m und keine Kumulonimbus oder Gewitterwolken

METAR: EGYM 221850Z 23005KT CAVOK 17/07 Q1017 BLU

Zeit: 20:27 (19:27 UTC)

Prognose

Neuester Wetterbericht von vor 9 Stunden und 0 Minuten, um 10:27 UTC
Gültige Prognose vom 22 um 12 UTC bis 22 um 18 UTC
Wind 8 kt aus West
Sichtweite 10 km oder mehr
Leicht bewölkt in der Höhe von 4500 ft

TAF: EGYM 221027Z 2212/2218 26008KT 9999 FEW045

Wetterbeobachtungen und Prognosen von mehr als 4000 Flughäfen (METAR und TAF Bericht).

Die verfügbaren Stationen werden durch gelbe und rote Markierungen auf der Karte dargestellt.

Führen Sie die Maus auf sie, um den Namen der Station zu sehen.

Darauf klicken, um die Beobachtung von Wetterbeobachtungen und Prognosen zu sehen.

Um die Karte zu ändern : klicken Sie auf den grünen Tasten mit einem schwarzen Kreuz Zum Vergrößern, auf den grünen Button mit einem Gedankenstrich zu verkleinern, oder auf die grünen Pfeile für benachbarte Karten.


METAR-TAF: